Time;durP1;ratioP1;P1;durP2;ratioP2;P2;SDS_P1;SDS_P2;PMS_P1;PMS_P2;Temp;Humidity;BMP_temperature;BMP_pressure;BME280_temperature;BME280_humidity;BME280_pressure;Samples;Min_cycle;Max_cycle;Signal;HPM_P1;HPM_P2
2024/03/29 00:00:35;;;;;;;10.00;2.85;;;9.20;35.00;;;;;;5052275;28;20477;-75
2024/03/29 00:03:01;;;;;;;5.82;1.38;;;9.20;35.00;;;;;;5052002;28;20392;-75
2024/03/29 00:05:27;;;;;;;5.50;1.90;;;9.10;34.20;;;;;;5051641;28;20479;-76
2024/03/29 00:07:52;;;;;;;7.25;1.95;;;9.10;34.60;;;;;;5051609;28;20435;-76
2024/03/29 00:10:18;;;;;;;4.57;1.98;;;9.00;35.50;;;;;;5033271;28;20370;-77
2024/03/29 00:12:43;;;;;;;4.27;1.50;;;9.00;35.70;;;;;;5035077;28;20397;-76
2024/03/29 00:15:09;;;;;;;5.40;1.50;;;8.90;35.10;;;;;;5050550;28;20399;-76
2024/03/29 00:17:35;;;;;;;4.30;1.88;;;8.90;35.10;;;;;;5051169;28;20389;-76
2024/03/29 00:20:00;;;;;;;4.47;1.50;;;8.90;35.60;;;;;;5050859;28;20386;-76
2024/03/29 00:22:27;;;;;;;7.15;1.75;;;8.90;35.40;;;;;;5050818;28;20393;-76
2024/03/29 00:24:52;;;;;;;6.40;1.60;;;8.80;35.40;;;;;;5051274;28;20385;-75
2024/03/29 00:27:18;;;;;;;4.30;2.23;;;8.80;35.80;;;;;;5051574;28;20906;-75
2024/03/29 00:29:46;;;;;;;8.47;1.77;;;8.80;36.30;;;;;;5051264;28;20446;-75
2024/03/29 00:32:11;;;;;;;11.30;2.50;;;8.80;35.70;;;;;;5051119;28;20373;-76
2024/03/29 00:34:37;;;;;;;6.07;2.23;;;8.80;36.10;;;;;;5051023;28;20385;-75
2024/03/29 00:37:02;;;;;;;4.77;2.17;;;8.80;36.20;;;;;;5051861;28;20385;-76
2024/03/29 00:39:28;;;;;;;7.57;3.10;;;8.80;36.20;;;;;;5051347;28;20400;-75
2024/03/29 00:41:53;;;;;;;4.60;1.60;;;8.80;36.70;;;;;;5050771;28;20413;-74
2024/03/29 00:44:19;;;;;;;6.00;1.80;;;8.70;35.90;;;;;;5050946;28;21062;-77
2024/03/29 00:46:44;;;;;;;5.63;2.40;;;8.70;36.50;;;;;;5051975;28;20944;-76
2024/03/29 00:49:10;;;;;;;5.40;2.40;;;8.70;36.70;;;;;;5053368;28;20413;-76
2024/03/29 00:51:36;;;;;;;9.40;2.40;;;8.70;36.70;;;;;;5053026;28;20425;-77
2024/03/29 00:54:01;;;;;;;6.28;2.58;;;8.70;36.60;;;;;;5056628;28;20389;-76
2024/03/29 00:56:27;;;;;;;8.65;3.50;;;8.70;36.80;;;;;;5059161;28;20390;-75
2024/03/29 00:58:52;;;;;;;6.53;2.50;;;8.80;36.50;;;;;;5060194;28;20400;-75
2024/03/29 01:01:18;;;;;;;4.93;2.33;;;8.80;36.00;;;;;;5056771;28;20567;-75
2024/03/29 01:03:43;;;;;;;5.10;1.87;;;8.80;36.00;;;;;;5057661;28;20397;-76
2024/03/29 01:06:09;;;;;;;7.60;2.80;;;8.80;35.90;;;;;;5051339;28;20392;-76
2024/03/29 01:08:34;;;;;;;8.20;2.80;;;8.80;37.00;;;;;;5051850;28;20413;-75
2024/03/29 01:11:00;;;;;;;4.73;1.90;;;8.90;36.40;;;;;;5052984;28;20396;-76
2024/03/29 01:13:25;;;;;;;6.20;1.30;;;9.00;35.50;;;;;;5051944;28;20641;-76
2024/03/29 01:15:51;;;;;;;6.72;1.60;;;9.00;35.00;;;;;;5050701;28;20386;-75
2024/03/29 01:18:17;;;;;;;3.67;1.35;;;9.00;35.00;;;;;;5051123;28;20390;-75
2024/03/29 01:20:42;;;;;;;5.37;1.70;;;9.00;34.20;;;;;;5050622;28;20412;-75
2024/03/29 01:23:08;;;;;;;4.80;1.77;;;9.00;34.60;;;;;;5050188;28;20464;-76
2024/03/29 01:25:34;;;;;;;6.18;1.85;;;9.10;34.30;;;;;;5032800;28;20392;-76
2024/03/29 01:27:59;;;;;;;5.13;2.00;;;9.10;33.90;;;;;;5054838;28;20423;-76
2024/03/29 01:30:26;;;;;;;5.03;1.50;;;9.10;33.90;;;;;;5037029;28;20389;-76
2024/03/29 01:32:52;;;;;;;5.30;1.77;;;9.20;33.00;;;;;;5055038;28;20752;-76
2024/03/29 01:35:17;;;;;;;3.70;1.40;;;9.30;34.20;;;;;;5054695;28;20400;-75
2024/03/29 01:37:43;;;;;;;5.53;1.80;;;9.30;33.00;;;;;;5054187;28;20400;-76
2024/03/29 01:40:10;;;;;;;4.27;1.80;;;9.40;32.60;;;;;;5053900;28;20840;-75
2024/03/29 01:42:35;;;;;;;3.08;1.45;;;9.40;33.20;;;;;;5053289;28;20397;-77
2024/03/29 01:45:01;;;;;;;4.13;1.30;;;9.50;32.30;;;;;;5054124;28;20788;-71
2024/03/29 01:47:27;;;;;;;5.70;2.13;;;9.50;32.00;;;;;;5054931;28;20385;-72
2024/03/29 01:49:52;;;;;;;3.88;1.70;;;9.60;32.10;;;;;;5054111;28;20808;-73
2024/03/29 01:52:20;;;;;;;4.03;1.77;;;9.70;31.50;;;;;;5053431;28;20484;-74
2024/03/29 01:54:46;;;;;;;7.10;1.50;;;9.60;32.70;;;;;;5053920;28;20467;-76
2024/03/29 01:57:13;;;;;;;4.43;2.15;;;9.70;31.90;;;;;;5053462;28;20941;-75
2024/03/29 01:59:41;;;;;;;8.25;3.03;;;9.70;32.10;;;;;;5035468;28;20390;-76
2024/03/29 02:02:07;;;;;;;5.00;2.20;;;9.80;32.40;;;;;;5035811;28;20481;-76
2024/03/29 02:04:34;;;;;;;5.75;2.50;;;9.90;31.20;;;;;;5053541;28;20385;-72
2024/03/29 02:07:00;;;;;;;3.60;1.60;;;9.80;31.30;;;;;;5053622;28;20512;-75
2024/03/29 02:09:26;;;;;;;6.90;2.60;;;9.80;31.00;;;;;;5053877;28;20381;-75
2024/03/29 02:11:51;;;;;;;4.83;2.10;;;9.90;30.90;;;;;;5056226;28;20389;-77
2024/03/29 02:14:17;;;;;;;6.10;1.63;;;9.90;30.70;;;;;;5056146;28;20385;-78
2024/03/29 02:16:42;;;;;;;4.97;2.05;;;9.90;30.40;;;;;;5037092;28;20385;-77
2024/03/29 02:19:08;;;;;;;7.15;2.00;;;10.00;30.60;;;;;;5036125;28;20393;-77
2024/03/29 02:21:40;;;;;;;7.97;3.35;;;10.00;29.90;;;;;;5053645;28;20401;-77
2024/03/29 02:24:07;;;;;;;6.10;1.60;;;10.10;30.80;;;;;;5054272;28;20539;-77
2024/03/29 02:26:36;;;;;;;4.10;1.00;;;10.00;29.70;;;;;;5035690;28;20389;-76
2024/03/29 02:29:02;;;;;;;2.20;1.20;;;10.10;29.40;;;;;;5054092;28;20386;-76
2024/03/29 02:31:27;;;;;;;4.07;1.60;;;10.80;29.80;;;;;;5053289;28;20395;-77
2024/03/29 02:33:53;;;;;;;3.70;1.90;;;10.10;29.50;;;;;;5053501;28;20767;-76
2024/03/29 02:36:19;;;;;;;5.50;2.00;;;10.20;29.00;;;;;;5035393;28;20393;-76
2024/03/29 02:38:44;;;;;;;6.10;2.60;;;10.30;28.90;;;;;;5052817;28;20751;-76
2024/03/29 02:41:10;;;;;;;5.20;2.90;;;10.40;28.60;;;;;;5053902;28;20409;-77
2024/03/29 02:43:35;;;;;;;6.95;2.80;;;10.40;28.80;;;;;;5053498;28;20409;-77
2024/03/29 02:46:01;;;;;;;7.20;2.93;;;10.40;28.80;;;;;;5053495;28;20460;-76
2024/03/29 02:48:26;;;;;;;5.97;2.00;;;11.10;29.80;;;;;;5053453;28;20390;-77
2024/03/29 02:50:52;;;;;;;10.27;2.70;;;10.50;28.10;;;;;;5053498;28;20497;-77
2024/03/29 02:53:17;;;;;;;3.23;1.60;;;10.40;28.50;;;;;;5038871;28;20385;-76
2024/03/29 02:55:43;;;;;;;3.40;1.40;;;10.40;28.20;;;;;;5068839;28;20385;-77
2024/03/29 02:58:08;;;;;;;5.90;1.80;;;10.50;28.50;;;;;;5060320;28;20880;-77
2024/03/29 03:00:34;;;;;;;4.73;1.50;;;10.40;28.90;;;;;;5061933;28;20480;-77
2024/03/29 03:02:59;;;;;;;5.17;2.30;;;10.40;29.00;;;;;;5037329;28;20424;-77
2024/03/29 03:05:25;;;;;;;2.73;1.53;;;10.40;29.80;;;;;;5054377;28;20417;-76
2024/03/29 03:13:19;;;;;;;3.30;1.50;;;10.30;31.30;;;;;;5053554;28;20443;-76
2024/03/29 03:15:44;;;;;;;4.30;1.40;;;10.10;31.90;;;;;;5052155;28;20807;-75
2024/03/29 03:18:10;;;;;;;3.90;1.70;;;10.10;32.20;;;;;;5052274;28;20882;-77
2024/03/29 03:20:37;;;;;;;3.47;1.33;;;10.00;32.70;;;;;;5034473;28;20451;-77
2024/03/29 03:23:03;;;;;;;5.80;2.30;;;10.00;32.80;;;;;;5052716;28;20409;-76
2024/03/29 03:25:29;;;;;;;4.30;1.60;;;10.00;33.40;;;;;;5052289;28;20404;-76
2024/03/29 03:27:54;;;;;;;6.70;2.20;;;10.00;32.50;;;;;;5052782;28;20431;-77
2024/03/29 03:30:20;;;;;;;4.83;2.27;;;10.00;32.80;;;;;;5052697;28;20393;-76
2024/03/29 03:32:46;;;;;;;4.50;1.90;;;10.00;33.40;;;;;;5052402;28;20392;-78
2024/03/29 03:35:12;;;;;;;5.55;2.10;;;10.10;32.60;;;;;;5052417;28;20409;-76
2024/03/29 03:37:37;;;;;;;4.47;1.80;;;10.10;32.90;;;;;;5052885;28;20470;-78
2024/03/29 03:40:04;;;;;;;4.15;1.60;;;10.00;32.60;;;;;;5053273;28;20388;-75
2024/03/29 03:42:30;;;;;;;4.95;2.00;;;10.10;32.40;;;;;;5051788;28;20417;-75
2024/03/29 03:44:56;;;;;;;6.70;1.70;;;10.10;32.50;;;;;;5052859;28;20386;-76
2024/03/29 03:47:21;;;;;;;8.43;3.13;;;10.00;32.60;;;;;;5052029;28;20439;-77
2024/03/29 03:49:47;;;;;;;6.40;2.00;;;10.10;33.10;;;;;;5052235;28;20382;-78
2024/03/29 03:52:12;;;;;;;7.60;2.40;;;10.10;32.70;;;;;;5052253;28;20416;-77
2024/03/29 03:54:38;;;;;;;4.40;1.80;;;10.10;32.70;;;;;;5052703;28;20400;-76
2024/03/29 03:57:04;;;;;;;7.80;2.10;;;10.10;32.60;;;;;;5051999;28;20485;-76
2024/03/29 03:59:30;;;;;;;4.15;1.65;;;10.10;33.00;;;;;;5052198;28;20456;-75
2024/03/29 04:01:55;;;;;;;5.88;1.98;;;10.00;32.60;;;;;;5052612;28;20409;-77
2024/03/29 04:04:21;;;;;;;2.78;1.58;;;10.00;32.90;;;;;;5053273;28;20377;-76
2024/03/29 04:06:47;;;;;;;5.03;1.50;;;10.00;32.70;;;;;;5052461;28;20587;-77
2024/03/29 04:09:15;;;;;;;4.40;1.25;;;10.00;32.30;;;;;;5052558;28;20381;-77
2024/03/29 04:11:41;;;;;;;4.05;1.50;;;9.90;32.60;;;;;;5057041;28;20409;-77
2024/03/29 04:14:07;;;;;;;5.35;1.55;;;10.80;33.20;;;;;;5055980;28;20428;-76
2024/03/29 04:16:33;;;;;;;6.20;1.30;;;9.90;32.30;;;;;;5055859;28;20503;-77
2024/03/29 04:18:58;;;;;;;3.58;1.90;;;9.90;32.60;;;;;;5065695;28;20395;-76
2024/03/29 04:21:24;;;;;;;5.50;2.10;;;9.90;32.40;;;;;;5065953;28;20428;-76
2024/03/29 04:23:49;;;;;;;5.25;2.25;;;10.00;32.30;;;;;;5063756;28;20393;-77
2024/03/29 04:26:15;;;;;;;8.90;2.13;;;10.10;32.70;;;;;;5052510;28;20382;-76
2024/03/29 04:28:40;;;;;;;6.10;2.13;;;10.10;31.90;;;;;;5053410;28;20454;-76
2024/03/29 04:31:06;;;;;;;2.60;1.37;;;10.20;31.90;;;;;;5040208;28;20381;-77
2024/03/29 04:33:31;;;;;;;2.93;1.50;;;10.10;32.40;;;;;;5054384;28;20389;-77
2024/03/29 04:36:03;;;;;;;8.85;1.90;;;10.10;32.40;;;;;;5052757;28;20377;-77
2024/03/29 04:38:29;;;;;;;4.10;1.40;;;10.00;33.00;;;;;;5052031;28;20396;-75
2024/03/29 04:40:56;;;;;;;3.87;1.20;;;10.00;33.20;;;;;;5051577;28;20750;-77
2024/03/29 04:43:23;;;;;;;4.30;1.60;;;10.00;32.90;;;;;;5051120;28;20382;-76
2024/03/29 04:45:49;;;;;;;5.15;2.50;;;10.00;33.40;;;;;;5052592;28;20385;-76
2024/03/29 04:48:15;;;;;;;4.50;2.50;;;10.00;34.50;;;;;;5052421;28;20526;-75
2024/03/29 04:50:41;;;;;;;5.45;1.77;;;10.00;35.10;;;;;;5052066;28;20389;-77
2024/03/29 04:53:10;;;;;;;5.13;2.10;;;10.00;35.60;;;;;;5051626;28;20389;-77
2024/03/29 04:55:35;;;;;;;4.47;1.50;;;10.00;36.30;;;;;;5052367;28;20377;-78
2024/03/29 04:58:02;;;;;;;5.38;1.75;;;9.80;36.50;;;;;;5052495;28;20385;-75
2024/03/29 05:00:27;;;;;;;8.70;1.40;;;9.80;37.30;;;;;;5053378;28;20965;-74
2024/03/29 05:02:53;;;;;;;3.30;1.30;;;9.60;38.00;;;;;;5065856;28;20453;-77
2024/03/29 05:05:18;;;;;;;7.00;1.83;;;9.70;38.30;;;;;;5056595;28;20461;-77
2024/03/29 05:07:44;;;;;;;9.13;3.15;;;9.70;38.20;;;;;;5056503;28;20868;-77
2024/03/29 05:10:09;;;;;;;6.28;1.77;;;9.80;39.40;;;;;;5056728;28;20386;-77
2024/03/29 05:12:36;;;;;;;5.22;1.65;;;9.80;39.10;;;;;;5055105;28;20386;-76
2024/03/29 05:15:01;;;;;;;5.85;1.60;;;9.60;40.00;;;;;;5054861;28;20412;-77
2024/03/29 05:17:27;;;;;;;3.47;1.47;;;9.50;41.40;;;;;;5056693;28;20378;-76
2024/03/29 05:19:55;;;;;;;4.33;1.40;;;9.50;41.30;;;;;;5059269;28;20470;-75
2024/03/29 05:22:21;;;;;;;5.75;1.50;;;9.40;42.10;;;;;;5054962;28;20882;-75
2024/03/29 05:24:46;;;;;;;4.40;1.52;;;9.30;43.10;;;;;;5037632;28;20455;-76
2024/03/29 05:27:12;;;;;;;3.90;1.40;;;9.20;43.90;;;;;;5056947;28;20464;-77
2024/03/29 05:29:38;;;;;;;6.80;1.73;;;9.30;43.90;;;;;;5055875;28;20428;-77
2024/03/29 05:32:05;;;;;;;4.63;1.60;;;9.30;44.30;;;;;;5054561;28;20802;-76
2024/03/29 05:34:31;;;;;;;4.63;1.30;;;9.30;45.20;;;;;;5054488;28;20907;-77
2024/03/29 05:36:56;;;;;;;5.72;1.92;;;9.30;45.40;;;;;;5054895;28;20447;-78
2024/03/29 05:39:22;;;;;;;4.10;1.60;;;9.40;45.80;;;;;;5054679;28;20880;-77
2024/03/29 05:41:47;;;;;;;3.90;1.40;;;9.30;46.20;;;;;;5055230;28;20397;-77
2024/03/29 05:44:13;;;;;;;3.83;1.50;;;9.20;47.10;;;;;;5054127;28;20382;-77
2024/03/29 05:46:40;;;;;;;5.60;1.60;;;9.20;47.20;;;;;;5055106;28;20416;-77
2024/03/29 05:49:06;;;;;;;4.70;1.90;;;9.30;46.70;;;;;;5054623;28;20377;-76
2024/03/29 05:51:31;;;;;;;3.58;1.60;;;9.50;46.50;;;;;;5054083;28;20393;-75
2024/03/29 05:53:57;;;;;;;2.00;1.50;;;9.40;45.90;;;;;;5054099;28;20408;-76
2024/03/29 05:56:22;;;;;;;3.97;1.83;;;9.50;45.80;;;;;;5053865;28;20385;-76
2024/03/29 05:58:48;;;;;;;5.22;1.95;;;9.40;46.10;;;;;;5055311;28;20382;-77
2024/03/29 06:01:13;;;;;;;4.65;1.88;;;9.40;45.80;;;;;;5054557;28;20978;-75
2024/03/29 06:03:39;;;;;;;6.90;2.10;;;9.40;46.40;;;;;;5056321;28;20382;-77
2024/03/29 06:06:05;;;;;;;5.30;2.00;;;9.30;46.90;;;;;;5054294;28;20460;-77
2024/03/29 06:08:30;;;;;;;3.53;1.60;;;9.40;46.30;;;;;;5054891;28;20427;-77
2024/03/29 06:10:57;;;;;;;3.20;1.47;;;9.50;45.40;;;;;;5055020;28;20451;-76
2024/03/29 06:18:51;;;;;;;5.38;1.83;;;9.50;46.40;;;;;;5054237;28;20473;-77
2024/03/29 06:21:16;;;;;;;4.33;1.50;;;9.50;47.60;;;;;;5053707;28;20484;-77
2024/03/29 06:23:42;;;;;;;7.13;2.10;;;9.50;46.50;;;;;;5053898;28;20381;-75
2024/03/29 06:26:07;;;;;;;4.73;2.30;;;9.50;46.70;;;;;;5036012;28;20868;-77
2024/03/29 06:28:33;;;;;;;5.65;2.00;;;9.60;47.20;;;;;;5054398;28;20381;-78
2024/03/29 06:31:00;;;;;;;6.22;2.05;;;9.60;46.90;;;;;;5055226;28;20389;-79
2024/03/29 06:33:25;;;;;;;6.38;2.30;;;9.60;47.40;;;;;;5053951;28;20385;-77
2024/03/29 06:35:54;;;;;;;3.50;1.70;;;9.70;47.70;;;;;;5053814;28;20530;-76
2024/03/29 06:38:20;;;;;;;6.28;1.95;;;9.70;47.50;;;;;;5053556;28;20464;-76
2024/03/29 06:40:46;;;;;;;6.50;2.40;;;9.70;47.70;;;;;;5035813;28;20496;-76
2024/03/29 06:43:12;;;;;;;4.80;1.90;;;9.90;47.80;;;;;;5055179;28;20796;-75
2024/03/29 06:45:42;;;;;;;12.35;2.47;;;9.90;47.60;;;;;;5057892;28;20427;-78
2024/03/29 06:48:08;;;;;;;9.65;2.20;;;10.00;47.70;;;;;;5061158;28;20373;-77
2024/03/29 06:50:34;;;;;;;4.47;2.20;;;10.00;47.40;;;;;;5059959;28;20384;-76
2024/03/29 06:53:00;;;;;;;3.45;1.90;;;10.10;47.60;;;;;;5067073;28;20384;-76
2024/03/29 06:55:26;;;;;;;6.38;2.00;;;10.10;47.10;;;;;;5067510;28;20405;-76
2024/03/29 06:57:51;;;;;;;3.55;2.10;;;10.10;46.90;;;;;;5064835;28;20396;-77
2024/03/29 07:00:17;;;;;;;4.65;2.30;;;10.10;47.10;;;;;;5053079;28;20389;-77
2024/03/29 07:02:43;;;;;;;4.78;2.30;;;10.10;47.70;;;;;;5055410;28;20404;-76
2024/03/29 07:05:11;;;;;;;4.70;1.70;;;10.10;48.40;;;;;;5062170;28;20464;-76
2024/03/29 07:07:37;;;;;;;6.75;2.28;;;10.10;48.00;;;;;;5054608;28;20382;-78
2024/03/29 07:10:03;;;;;;;4.47;2.30;;;10.20;48.40;;;;;;5054398;28;20439;-77
2024/03/29 07:12:28;;;;;;;4.80;2.63;;;10.20;47.90;;;;;;5053326;28;20389;-76
2024/03/29 07:14:54;;;;;;;7.43;2.85;;;10.30;48.10;;;;;;5056329;28;20480;-75
2024/03/29 07:17:19;;;;;;;6.85;1.90;;;10.30;47.50;;;;;;5053799;28;20377;-76
2024/03/29 07:19:45;;;;;;;3.10;1.98;;;10.30;47.90;;;;;;5052766;28;20394;-76
2024/03/29 07:22:10;;;;;;;3.80;2.10;;;10.50;47.10;;;;;;5037253;28;20398;-77
2024/03/29 07:24:36;;;;;;;5.63;2.10;;;10.40;47.30;;;;;;5055977;28;20420;-77
2024/03/29 07:27:02;;;;;;;6.10;2.37;;;10.20;50.20;;;;;;5056459;28;20381;-76
2024/03/29 07:29:27;;;;;;;5.90;2.47;;;10.50;47.60;;;;;;5057367;28;20404;-77
2024/03/29 07:31:53;;;;;;;3.30;2.13;;;10.30;47.10;;;;;;5054574;28;20445;-78
2024/03/29 07:34:19;;;;;;;5.95;2.05;;;10.50;47.90;;;;;;5054526;28;20714;-77
2024/03/29 07:36:45;;;;;;;8.63;2.20;;;10.50;48.20;;;;;;5056459;28;20589;-78
2024/03/29 07:39:10;;;;;;;4.30;2.20;;;10.60;47.90;;;;;;5059824;28;20467;-77
2024/03/29 07:41:36;;;;;;;5.07;2.00;;;10.50;49.00;;;;;;5055475;28;20967;-76
2024/03/29 07:44:04;;;;;;;4.20;2.00;;;10.60;49.50;;;;;;5058353;28;20386;-77
2024/03/29 07:46:33;;;;;;;5.18;2.20;;;10.50;49.70;;;;;;5056712;28;20407;-77
2024/03/29 07:48:59;;;;;;;4.70;2.10;;;10.70;50.50;;;;;;5055292;28;20478;-77
2024/03/29 07:51:24;;;;;;;4.65;2.10;;;10.70;50.50;;;;;;5052149;28;20507;-77
2024/03/29 07:53:50;;;;;;;5.57;2.08;;;10.60;51.00;;;;;;5056379;28;20386;-75
2024/03/29 07:56:16;;;;;;;3.63;2.00;;;10.60;51.50;;;;;;5054866;28;20388;-76
2024/03/29 07:58:42;;;;;;;5.90;2.50;;;10.70;52.00;;;;;;5052425;28;20417;-76
2024/03/29 08:01:08;;;;;;;4.05;2.28;;;10.70;52.50;;;;;;5051946;28;20440;-76
2024/03/29 08:03:34;;;;;;;4.37;1.90;;;11.00;53.30;;;;;;5052004;28;20915;-75
2024/03/29 08:06:05;;;;;;;5.43;2.40;;;10.90;52.40;;;;;;5050677;28;20500;-77
2024/03/29 08:08:32;;;;;;;5.50;2.30;;;11.10;52.60;;;;;;5052184;28;20872;-75
2024/03/29 08:10:58;;;;;;;6.00;2.35;;;11.10;52.10;;;;;;5053608;28;20385;-76
2024/03/29 08:13:27;;;;;;;7.50;2.05;;;11.00;52.70;;;;;;5053462;28;20413;-76
2024/03/29 08:16:00;;;;;;;4.60;2.13;;;11.20;53.20;;;;;;5069020;22;20445;-74
2024/03/29 08:18:26;;;;;;;4.97;2.30;;;11.20;53.60;;;;;;5054831;28;20392;-74
2024/03/29 08:20:54;;;;;;;6.72;1.95;;;11.30;55.10;;;;;;5037349;28;20405;-73
2024/03/29 08:23:23;;;;;;;5.47;2.00;;;11.30;54.10;;;;;;5056063;28;20393;-72
2024/03/29 08:25:49;;;;;;;7.80;2.20;;;11.30;54.50;;;;;;5055189;28;20821;-74
2024/03/29 08:28:18;;;;;;;6.33;2.80;;;11.60;53.70;;;;;;5053315;28;20385;-72
2024/03/29 08:30:44;;;;;;;6.90;2.90;;;11.60;54.20;;;;;;5052319;28;20813;-72
2024/03/29 08:33:10;;;;;;;5.67;2.60;;;11.60;54.20;;;;;;5052814;28;20464;-74
2024/03/29 08:35:35;;;;;;;7.60;2.30;;;11.70;54.00;;;;;;5051348;28;20483;-75
2024/03/29 08:38:01;;;;;;;3.22;2.15;;;11.70;54.00;;;;;;5051236;28;20443;-73
2024/03/29 08:40:29;;;;;;;5.90;1.92;;;11.90;53.20;;;;;;5051082;28;20385;-74
2024/03/29 08:42:55;;;;;;;3.50;2.10;;;11.90;53.40;;;;;;5051341;28;20381;-73
2024/03/29 08:45:21;;;;;;;8.50;2.85;;;12.00;53.50;;;;;;5051097;28;20425;-74
2024/03/29 08:47:47;;;;;;;7.55;2.40;;;12.10;53.70;;;;;;5051531;28;20381;-73
2024/03/29 08:50:13;;;;;;;4.30;2.50;;;11.90;54.00;;;;;;5051411;28;20393;-72
2024/03/29 08:52:39;;;;;;;4.57;2.10;;;11.80;54.80;;;;;;5051464;28;20473;-75
2024/03/29 08:55:06;;;;;;;4.20;2.33;;;11.90;54.10;;;;;;5051352;28;20472;-71
2024/03/29 08:57:32;;;;;;;4.77;2.10;;;12.10;53.80;;;;;;5051167;28;20451;-74
2024/03/29 08:59:58;;;;;;;2.50;2.10;;;12.20;53.50;;;;;;5052630;28;20386;-75
2024/03/29 09:02:23;;;;;;;4.60;1.90;;;12.30;52.00;;;;;;5051029;28;20459;-74
2024/03/29 09:04:49;;;;;;;3.23;2.10;;;12.50;50.90;;;;;;5052648;28;20389;-73
2024/03/29 09:07:15;;;;;;;2.80;1.50;;;12.60;51.00;;;;;;5051684;28;20378;-72
2024/03/29 09:09:41;;;;;;;3.50;2.00;;;12.80;50.40;;;;;;5051900;28;20389;-74
2024/03/29 09:12:08;;;;;;;5.97;3.40;;;13.10;49.40;;;;;;5042859;28;20834;-73
2024/03/29 09:14:33;;;;;;;5.55;2.20;;;13.30;48.00;;;;;;5048793;28;20389;-75
2024/03/29 09:16:59;;;;;;;6.63;2.45;;;13.80;46.80;;;;;;5044194;28;20488;-75
2024/03/29 09:19:25;;;;;;;5.30;2.63;;;13.70;45.90;;;;;;5046607;28;20396;-72
2024/03/29 09:21:51;;;;;;;7.53;3.00;;;13.90;44.80;;;;;;5034235;28;20443;-74
2024/03/29 09:24:17;;;;;;;7.68;2.70;;;14.00;44.80;;;;;;5042790;28;20417;-74
2024/03/29 09:26:43;;;;;;;5.00;2.22;;;14.20;42.50;;;;;;5054456;28;20377;-75
2024/03/29 09:29:09;;;;;;;4.25;1.60;;;14.50;41.10;;;;;;5038726;28;20414;-75
2024/03/29 09:31:34;;;;;;;3.35;1.75;;;14.60;40.70;;;;;;5038899;28;20383;-74
2024/03/29 09:34:00;;;;;;;4.35;2.28;;;14.60;40.10;;;;;;5048991;28;20394;-74
2024/03/29 09:36:26;;;;;;;3.47;2.15;;;14.50;40.10;;;;;;5045614;28;20389;-73
2024/03/29 09:38:52;;;;;;;3.45;1.50;;;14.40;40.60;;;;;;5048378;28;20387;-73
2024/03/29 09:41:21;;;;;;;2.45;1.38;;;14.70;39.20;;;;;;5039232;28;20409;-73
2024/03/29 09:43:48;;;;;;;2.50;1.15;;;14.80;39.30;;;;;;5044962;28;20885;-75
2024/03/29 09:46:15;;;;;;;2.67;1.40;;;15.00;38.20;;;;;;5035864;28;20384;-72
2024/03/29 09:48:42;;;;;;;3.17;1.20;;;15.00;38.20;;;;;;5050960;28;20468;-74
2024/03/29 09:51:09;;;;;;;3.75;1.40;;;14.90;38.70;;;;;;5047654;28;20402;-72
2024/03/29 09:53:37;;;;;;;3.78;1.30;;;14.90;38.30;;;;;;5053632;28;20397;-74
2024/03/29 09:56:07;;;;;;;3.15;1.20;;;15.10;37.30;;;;;;5050572;28;20746;-74
2024/03/29 09:58:34;;;;;;;3.23;1.60;;;15.20;36.70;;;;;;5050264;28;20403;-73
2024/03/29 10:01:05;;;;;;;2.53;1.40;;;15.30;36.60;;;;;;5047183;28;20415;-71
2024/03/29 10:03:32;;;;;;;2.10;1.30;;;15.30;36.50;;;;;;5045754;28;20396;-74
2024/03/29 10:05:59;;;;;;;2.10;1.40;;;15.50;36.80;;;;;;5035282;28;20407;-73
2024/03/29 10:08:30;;;;;;;2.30;1.27;;;15.70;35.90;;;;;;5039886;28;20394;-74
2024/03/29 10:10:58;;;;;;;5.07;1.90;;;15.80;35.00;;;;;;5050767;28;20451;-74
2024/03/29 10:13:24;;;;;;;2.88;1.23;;;16.00;34.70;;;;;;5048291;28;20433;-72
2024/03/29 10:15:55;;;;;;;3.58;1.42;;;15.80;33.60;;;;;;5050786;28;20455;-74
2024/03/29 10:18:27;;;;;;;2.30;1.40;;;15.50;35.10;;;;;;5047223;28;20393;-74
2024/03/29 10:21:01;;;;;;;2.25;1.20;;;15.30;35.90;;;;;;5049558;28;20417;-74
2024/03/29 10:23:27;;;;;;;2.00;1.20;;;15.20;36.00;;;;;;5047797;28;20385;-72
2024/03/29 10:25:52;;;;;;;2.97;1.40;;;15.20;35.40;;;;;;5052419;28;20384;-72
2024/03/29 10:28:21;;;;;;;3.30;1.40;;;15.10;36.40;;;;;;5053268;28;20735;-74
2024/03/29 10:30:47;;;;;;;3.55;1.15;;;15.20;36.70;;;;;;5051863;28;20904;-73
2024/03/29 10:33:13;;;;;;;2.20;1.20;;;15.20;36.70;;;;;;5045875;28;20387;-73
2024/03/29 10:35:43;;;;;;;2.20;1.48;;;15.30;37.30;;;;;;5034748;28;20394;-73
2024/03/29 10:38:12;;;;;;;2.50;1.50;;;15.30;36.40;;;;;;5047905;28;20444;-73
2024/03/29 10:40:42;;;;;;;4.30;1.67;;;15.30;36.40;;;;;;5053991;28;20872;-72
2024/03/29 10:43:13;;;;;;;2.80;1.40;;;15.30;35.40;;;;;;5051736;28;20396;-72
2024/03/29 10:45:39;;;;;;;3.75;1.30;;;15.50;34.90;;;;;;5050370;28;20476;-73
2024/03/29 10:48:09;;;;;;;3.42;1.30;;;15.70;33.90;;;;;;5043585;28;20972;-73
2024/03/29 10:50:36;;;;;;;1.90;1.15;;;15.80;33.90;;;;;;5043094;28;20435;-74
2024/03/29 10:53:03;;;;;;;5.85;1.20;;;16.30;33.60;;;;;;5046189;28;20888;-74
2024/03/29 10:55:33;;;;;;;2.60;1.40;;;16.70;31.90;;;;;;5036065;28;20388;-73
2024/03/29 10:58:01;;;;;;;3.58;1.30;;;17.20;30.50;;;;;;5031689;28;20406;-73
2024/03/29 11:00:31;;;;;;;4.00;1.20;;;17.30;29.70;;;;;;5030327;28;20868;-75
2024/03/29 11:03:09;;;;;;;3.90;1.30;;;17.40;28.90;;;;;;5034224;28;20426;-73
2024/03/29 11:05:37;;;;;;;4.28;1.20;;;17.50;29.00;;;;;;5035222;28;20720;-74
2024/03/29 11:08:04;;;;;;;1.80;1.00;;;17.70;27.10;;;;;;5055442;28;20512;-74
2024/03/29 11:10:35;;;;;;;3.90;1.70;;;17.80;27.20;;;;;;5042944;28;20391;-74
2024/03/29 11:13:17;;;;;;;2.75;1.42;;;17.80;27.20;;;;;;5045788;28;20882;-73
2024/03/29 11:15:47;;;;;;;3.75;1.20;;;18.10;25.10;;;;;;5033012;28;20387;-71
2024/03/29 11:18:16;;;;;;;3.00;1.30;;;18.00;24.80;;;;;;5058059;28;20461;-70
2024/03/29 11:20:46;;;;;;;3.20;1.40;;;18.00;24.60;;;;;;5063511;28;20402;-72
2024/03/29 11:23:14;;;;;;;2.30;1.00;;;17.90;24.50;;;;;;5060505;28;20393;-74
2024/03/29 11:25:50;;;;;;;3.00;1.00;;;18.00;24.00;;;;;;5065193;28;20419;-74
2024/03/29 11:28:32;;;;;;;2.28;1.30;;;17.80;23.50;;;;;;5057649;28;20451;-74
2024/03/29 11:31:06;;;;;;;1.65;1.00;;;17.60;24.20;;;;;;5036309;28;20398;-73
2024/03/29 11:33:34;;;;;;;2.40;1.00;;;17.50;23.10;;;;;;5040132;28;20862;-77
2024/03/29 11:36:06;;;;;;;3.40;1.20;;;17.40;23.30;;;;;;5029732;28;20901;-73
2024/03/29 11:38:36;;;;;;;2.10;1.03;;;17.50;23.40;;;;;;5029244;28;20429;-73
2024/03/29 11:41:06;;;;;;;2.53;0.93;;;17.60;23.40;;;;;;5046635;28;20416;-73
2024/03/29 11:43:33;;;;;;;2.47;0.80;;;17.80;22.70;;;;;;5044767;28;20395;-75
2024/03/29 11:46:00;;;;;;;6.45;1.10;;;17.60;22.70;;;;;;5031877;28;20459;-74
2024/03/29 11:48:28;;;;;;;4.97;1.92;;;17.70;23.30;;;;;;5041325;28;20396;-74
2024/03/29 11:50:54;;;;;;;2.80;0.90;;;17.80;22.60;;;;;;5046204;28;20473;-74
2024/03/29 11:53:20;;;;;;;2.60;1.00;;;17.80;22.40;;;;;;5047378;28;20420;-74
2024/03/29 11:55:53;;;;;;;4.10;1.50;;;17.80;21.90;;;;;;5038597;28;20394;-73
2024/03/29 11:58:19;;;;;;;3.00;1.08;;;17.80;22.70;;;;;;5028450;28;20395;-74
2024/03/29 12:00:47;;;;;;;2.55;0.85;;;17.70;22.40;;;;;;5028372;28;20395;-75
2024/03/29 12:03:13;;;;;;;1.40;1.10;;;17.60;20.90;;;;;;5028972;28;20474;-74
2024/03/29 12:05:39;;;;;;;4.77;0.90;;;17.40;21.80;;;;;;5046262;28;20397;-72
2024/03/29 12:08:05;;;;;;;1.98;0.70;;;17.20;21.40;;;;;;5044282;28;20389;-74
2024/03/29 12:10:31;;;;;;;2.30;0.90;;;17.10;21.90;;;;;;5030385;28;20387;-76
2024/03/29 12:12:57;;;;;;;9.97;1.27;;;17.10;22.30;;;;;;5032323;28;20469;-72
2024/03/29 12:15:28;;;;;;;2.50;1.20;;;17.10;22.90;;;;;;5036226;28;20402;-75
2024/03/29 12:17:58;;;;;;;4.67;1.27;;;17.20;23.30;;;;;;5032710;28;20425;-75
2024/03/29 12:20:23;;;;;;;3.92;1.10;;;17.30;22.40;;;;;;5033407;28;20398;-74
2024/03/29 12:22:49;;;;;;;3.70;1.00;;;17.50;22.20;;;;;;5027800;28;20417;-75
2024/03/29 12:25:15;;;;;;;3.80;0.90;;;17.50;21.00;;;;;;5048106;28;20468;-73
2024/03/29 12:27:45;;;;;;;3.37;1.10;;;17.50;22.10;;;;;;5048459;28;20458;-72
2024/03/29 12:30:13;;;;;;;3.70;1.20;;;17.30;22.00;;;;;;5048659;28;20426;-73
2024/03/29 12:32:39;;;;;;;2.67;1.10;;;17.30;23.00;;;;;;5047410;28;20407;-74
2024/03/29 12:35:12;;;;;;;1.90;0.90;;;17.70;20.40;;;;;;5048745;28;20439;-73
2024/03/29 12:37:38;;;;;;;2.75;0.80;;;17.70;21.00;;;;;;5047961;28;20385;-75
2024/03/29 12:40:18;;;;;;;3.40;1.10;;;17.60;21.30;;;;;;5047872;28;20802;-73
2024/03/29 12:42:43;;;;;;;6.20;1.70;;;17.70;21.50;;;;;;5046956;28;20463;-76
2024/03/29 12:45:10;;;;;;;4.10;0.90;;;17.90;21.30;;;;;;5047580;28;20837;-72
2024/03/29 12:47:36;;;;;;;5.35;1.23;;;17.80;20.60;;;;;;5048045;28;20496;-73
2024/03/29 12:50:03;;;;;;;4.72;1.40;;;17.60;21.40;;;;;;5048242;28;20464;-74
2024/03/29 12:52:39;;;;;;;2.72;1.00;;;17.60;21.40;;;;;;5035778;28;20481;-70
2024/03/29 12:55:07;;;;;;;3.40;1.00;;;17.60;21.40;;;;;;5027667;28;20387;-74
2024/03/29 12:57:34;;;;;;;4.43;1.20;;;17.70;21.60;;;;;;5026180;28;20398;-74